Time;durP1;ratioP1;P1;durP2;ratioP2;P2;SDS_P1;SDS_P2;PMS_P1;PMS_P2;Temp;Humidity;BMP_temperature;BMP_pressure;BME280_temperature;BME280_humidity;BME280_pressure;Samples;Min_cycle;Max_cycle;Signal;HPM_P1;HPM_P2
2021/11/14 00:01:32;;;;;;;1.60;1.30;;;9.50;98.20;;;;;;4837905;29;20468;-77
2021/11/14 00:04:00;;;;;;;1.60;1.20;;;9.50;98.20;;;;;;4838035;29;20775;-76
2021/11/14 00:06:27;;;;;;;1.60;1.20;;;9.50;98.20;;;;;;4836867;29;20500;-77
2021/11/14 00:08:54;;;;;;;1.60;1.20;;;9.40;98.20;;;;;;4838056;29;20476;-77
2021/11/14 00:11:21;;;;;;;1.60;1.23;;;9.40;98.20;;;;;;4836476;29;20496;-76
2021/11/14 00:13:51;;;;;;;1.60;1.20;;;9.40;98.20;;;;;;4836644;29;20483;-76
2021/11/14 00:16:20;;;;;;;1.60;1.20;;;9.40;98.20;;;;;;4834891;29;20503;-77
2021/11/14 00:18:46;;;;;;;1.60;1.10;;;9.40;98.20;;;;;;4836985;29;20574;-76
2021/11/14 00:21:16;;;;;;;1.60;1.17;;;9.40;98.20;;;;;;4838068;29;20520;-76
2021/11/14 00:23:43;;;;;;;1.60;1.20;;;9.40;98.20;;;;;;4837132;29;21268;-76
2021/11/14 00:26:10;;;;;;;1.60;1.20;;;9.40;98.20;;;;;;4831738;29;20954;-76
2021/11/14 00:28:39;;;;;;;1.60;1.20;;;9.40;98.20;;;;;;4834609;29;20480;-77
2021/11/14 00:31:07;;;;;;;1.60;1.20;;;9.40;98.20;;;;;;4836838;29;20598;-77
2021/11/14 00:33:34;;;;;;;1.60;1.20;;;9.40;98.20;;;;;;4836864;29;20472;-76
2021/11/14 00:36:01;;;;;;;1.60;1.20;;;9.40;98.20;;;;;;4837009;29;20507;-77
2021/11/14 00:38:27;;;;;;;1.60;1.20;;;9.40;98.20;;;;;;4838398;29;20472;-77
2021/11/14 00:40:55;;;;;;;2.03;1.83;;;9.40;98.20;;;;;;4837972;29;20472;-77
2021/11/14 00:43:22;;;;;;;1.60;1.20;;;9.40;98.20;;;;;;4838194;29;20479;-76
2021/11/14 00:45:49;;;;;;;1.60;1.20;;;9.40;98.20;;;;;;4837621;29;20599;-76
2021/11/14 00:48:17;;;;;;;1.60;1.20;;;9.40;98.20;;;;;;4838440;29;20887;-76
2021/11/14 00:50:45;;;;;;;1.60;1.20;;;9.40;98.20;;;;;;4843466;29;20495;-77
2021/11/14 00:53:12;;;;;;;1.60;1.10;;;9.40;98.20;;;;;;4843773;29;20563;-77
2021/11/14 00:55:40;;;;;;;1.60;1.20;;;9.40;98.20;;;;;;4841282;29;20872;-76
2021/11/14 00:58:07;;;;;;;1.60;1.10;;;9.40;98.20;;;;;;4832119;29;20483;-76
2021/11/14 01:00:35;;;;;;;1.60;1.20;;;9.40;98.20;;;;;;4835643;29;20483;-76
2021/11/14 01:03:03;;;;;;;1.60;1.20;;;9.40;98.20;;;;;;4841185;29;20479;-77
2021/11/14 01:05:32;;;;;;;1.60;1.20;;;9.40;98.20;;;;;;4838637;29;20520;-76
2021/11/14 01:08:00;;;;;;;1.60;1.10;;;9.40;98.20;;;;;;4836985;29;20472;-77
2021/11/14 01:10:30;;;;;;;1.60;1.20;;;9.40;98.20;;;;;;4838331;29;20472;-76
2021/11/14 01:12:58;;;;;;;1.60;1.20;;;9.40;98.20;;;;;;4838071;29;20467;-77
2021/11/14 01:15:28;;;;;;;1.60;1.20;;;9.40;98.20;;;;;;4841787;29;20980;-77
2021/11/14 01:17:56;;;;;;;1.60;1.20;;;9.40;98.20;;;;;;4841536;29;20478;-77
2021/11/14 01:20:25;;;;;;;1.60;1.10;;;9.40;98.20;;;;;;4840601;29;20532;-76
2021/11/14 01:22:56;;;;;;;1.60;1.20;;;9.40;98.20;;;;;;4841709;29;20559;-77
2021/11/14 01:25:24;;;;;;;1.63;1.20;;;9.40;98.20;;;;;;4838293;29;20493;-77
2021/11/14 01:27:51;;;;;;;1.60;1.20;;;9.40;98.20;;;;;;4833637;29;20534;-76
2021/11/14 01:30:21;;;;;;;1.60;1.27;;;9.40;98.20;;;;;;4839982;29;20518;-77
2021/11/14 01:32:47;;;;;;;1.60;1.20;;;9.40;98.20;;;;;;4841246;29;20497;-76
2021/11/14 01:35:16;;;;;;;1.60;1.20;;;9.40;98.20;;;;;;4840755;29;20830;-77
2021/11/14 01:37:44;;;;;;;1.60;1.20;;;9.40;98.20;;;;;;4837993;29;20472;-77
2021/11/14 01:40:16;;;;;;;1.60;1.20;;;9.40;98.20;;;;;;4840898;29;20499;-77
2021/11/14 01:42:43;;;;;;;1.60;1.20;;;9.40;98.20;;;;;;4840615;29;20480;-77
2021/11/14 01:45:10;;;;;;;1.60;1.20;;;9.40;98.20;;;;;;4840532;29;20483;-76
2021/11/14 01:47:37;;;;;;;1.60;1.20;;;9.40;98.20;;;;;;4836369;29;20468;-76
2021/11/14 01:50:07;;;;;;;1.60;1.20;;;9.40;98.20;;;;;;4840836;29;20472;-77
2021/11/14 01:52:34;;;;;;;1.60;1.27;;;9.40;98.20;;;;;;4840690;29;20526;-77
2021/11/14 01:55:01;;;;;;;1.60;1.20;;;9.40;98.20;;;;;;4835199;29;20556;-77
2021/11/14 01:57:30;;;;;;;1.60;1.20;;;9.40;98.20;;;;;;4831729;29;20945;-76
2021/11/14 01:59:56;;;;;;;1.60;1.20;;;9.40;98.20;;;;;;4839491;29;20484;-77
2021/11/14 02:02:23;;;;;;;1.60;1.20;;;9.40;98.20;;;;;;4840160;29;20473;-76
2021/11/14 02:04:51;;;;;;;1.60;1.10;;;9.40;98.20;;;;;;4830705;29;20484;-76
2021/11/14 02:07:19;;;;;;;1.60;1.20;;;9.40;98.20;;;;;;4828952;29;20500;-76
2021/11/14 02:09:47;;;;;;;1.67;1.30;;;9.40;98.20;;;;;;4832187;29;20464;-77
2021/11/14 02:12:13;;;;;;;1.60;1.10;;;9.40;98.20;;;;;;4838050;29;20504;-77
2021/11/14 02:14:42;;;;;;;1.60;1.20;;;9.40;98.20;;;;;;4839119;29;20472;-77
2021/11/14 02:17:09;;;;;;;1.60;1.20;;;9.40;98.20;;;;;;4835225;29;20865;-77
2021/11/14 02:19:36;;;;;;;1.60;1.20;;;9.40;98.20;;;;;;4839479;29;20475;-77
2021/11/14 02:22:05;;;;;;;1.60;1.20;;;9.40;98.20;;;;;;4839400;29;20484;-77
2021/11/14 02:24:32;;;;;;;1.60;1.20;;;9.40;98.20;;;;;;4838691;29;20476;-76
2021/11/14 02:26:59;;;;;;;1.60;1.20;;;9.40;98.20;;;;;;4835947;29;20499;-78
2021/11/14 02:29:26;;;;;;;1.60;1.20;;;9.40;98.20;;;;;;4841917;29;20475;-78
2021/11/14 02:31:53;;;;;;;1.60;1.10;;;9.40;98.20;;;;;;4843238;29;20579;-77
2021/11/14 02:34:21;;;;;;;1.60;1.30;;;9.40;98.20;;;;;;4843727;29;20967;-78
2021/11/14 02:36:48;;;;;;;1.60;1.20;;;9.40;98.20;;;;;;4842470;29;21054;-78
2021/11/14 02:39:17;;;;;;;1.60;1.20;;;9.40;98.20;;;;;;4843641;29;20509;-79
2021/11/14 02:41:44;;;;;;;1.60;1.20;;;9.40;98.20;;;;;;4843501;29;20536;-79
2021/11/14 02:44:11;;;;;;;1.60;1.20;;;9.40;98.20;;;;;;4842396;29;20483;-78
2021/11/14 02:46:39;;;;;;;1.63;1.30;;;9.40;98.20;;;;;;4839667;29;20844;-78
2021/11/14 02:49:06;;;;;;;1.60;1.20;;;9.40;98.20;;;;;;4839849;29;20479;-78
2021/11/14 02:51:34;;;;;;;1.60;1.30;;;9.40;98.20;;;;;;4842987;29;20507;-77
2021/11/14 02:54:02;;;;;;;1.60;1.20;;;9.40;98.20;;;;;;4841621;29;20536;-78
2021/11/14 02:56:31;;;;;;;1.60;1.20;;;9.40;98.20;;;;;;4836753;29;20496;-79
2021/11/14 02:58:58;;;;;;;1.60;1.20;;;9.30;98.20;;;;;;4840976;29;21051;-79
2021/11/14 03:01:29;;;;;;;1.60;1.30;;;9.30;98.20;;;;;;4843172;29;20472;-78
2021/11/14 03:03:58;;;;;;;1.60;1.20;;;9.30;98.20;;;;;;4842459;29;20472;-78
2021/11/14 03:06:28;;;;;;;1.60;1.20;;;9.30;98.20;;;;;;4839152;29;20777;-78
2021/11/14 03:08:55;;;;;;;1.60;1.20;;;9.30;98.20;;;;;;4831901;29;20483;-78
2021/11/14 03:11:22;;;;;;;1.60;1.20;;;9.30;98.20;;;;;;4839926;29;20483;-78
2021/11/14 03:13:50;;;;;;;1.60;1.20;;;9.30;98.20;;;;;;4836533;29;20472;-77
2021/11/14 03:16:20;;;;;;;1.60;1.30;;;9.30;98.20;;;;;;4830876;29;20499;-78
2021/11/14 03:18:48;;;;;;;1.60;1.30;;;9.20;98.20;;;;;;4829555;29;20468;-78
2021/11/14 03:21:15;;;;;;;1.60;1.37;;;9.20;98.20;;;;;;4838130;29;20476;-77
2021/11/14 03:23:42;;;;;;;1.60;1.20;;;9.20;98.20;;;;;;4840923;29;20478;-78
2021/11/14 03:26:09;;;;;;;1.60;1.20;;;9.20;98.20;;;;;;4840093;29;21071;-78
2021/11/14 03:28:36;;;;;;;1.60;1.20;;;9.20;98.20;;;;;;4839325;29;20507;-78
2021/11/14 03:31:05;;;;;;;1.60;1.20;;;9.20;98.20;;;;;;4839475;29;20476;-77
2021/11/14 03:33:32;;;;;;;1.60;1.10;;;9.30;98.20;;;;;;4839132;29;20591;-78
2021/11/14 03:36:01;;;;;;;1.60;1.20;;;9.30;98.20;;;;;;4838283;29;20504;-77
2021/11/14 03:38:31;;;;;;;1.60;1.20;;;9.30;98.20;;;;;;4839014;29;20494;-78
2021/11/14 03:41:00;;;;;;;1.60;1.20;;;9.30;98.20;;;;;;4839655;29;20479;-77
2021/11/14 03:43:28;;;;;;;1.60;1.30;;;9.30;98.20;;;;;;4839473;29;20469;-78
2021/11/14 03:45:55;;;;;;;1.60;1.20;;;9.30;98.20;;;;;;4837272;29;20576;-78
2021/11/14 03:48:25;;;;;;;1.60;1.20;;;9.30;98.20;;;;;;4839663;29;20472;-77
2021/11/14 03:50:52;;;;;;;1.60;1.20;;;9.30;98.20;;;;;;4842423;29;20473;-78
2021/11/14 03:53:20;;;;;;;1.60;1.20;;;9.30;98.20;;;;;;4842157;29;20492;-78
2021/11/14 03:55:47;;;;;;;1.60;1.10;;;9.30;98.20;;;;;;4840431;29;20500;-78
2021/11/14 03:58:14;;;;;;;1.60;1.20;;;9.30;98.20;;;;;;4836380;29;20468;-77
2021/11/14 04:00:44;;;;;;;1.60;1.20;;;9.30;98.20;;;;;;4842135;29;20956;-78
2021/11/14 04:03:12;;;;;;;1.60;1.20;;;9.30;98.20;;;;;;4841441;29;20483;-78
2021/11/14 04:05:41;;;;;;;1.60;1.20;;;9.30;98.20;;;;;;4836775;29;20492;-77
2021/11/14 04:08:10;;;;;;;1.60;1.20;;;9.30;98.20;;;;;;4839267;29;20979;-78
2021/11/14 04:10:37;;;;;;;1.60;1.20;;;9.30;98.20;;;;;;4839196;29;20476;-77
2021/11/14 04:13:05;;;;;;;1.60;1.30;;;9.30;98.20;;;;;;4842004;29;20508;-79
2021/11/14 04:15:32;;;;;;;1.60;1.20;;;9.30;98.20;;;;;;4841787;29;20496;-79
2021/11/14 04:17:59;;;;;;;1.60;1.17;;;9.20;98.20;;;;;;4835875;29;20479;-78
2021/11/14 04:20:28;;;;;;;1.60;1.20;;;9.20;98.20;;;;;;4841245;29;20475;-78
2021/11/14 04:22:57;;;;;;;1.60;1.20;;;9.20;98.20;;;;;;4844441;29;20484;-76
2021/11/14 04:25:25;;;;;;;1.60;1.13;;;9.20;98.20;;;;;;4842567;29;21046;-77
2021/11/14 04:27:52;;;;;;;1.60;1.20;;;9.20;98.20;;;;;;4842886;29;20817;-78
2021/11/14 04:30:18;;;;;;;1.60;1.20;;;9.20;98.20;;;;;;4843555;29;20888;-78
2021/11/14 04:32:46;;;;;;;1.60;1.20;;;9.20;98.20;;;;;;4845108;29;20868;-77
2021/11/14 04:35:13;;;;;;;1.60;1.20;;;9.20;98.20;;;;;;4844463;29;20468;-78
2021/11/14 04:37:40;;;;;;;1.60;1.20;;;9.20;98.20;;;;;;4845187;29;20979;-79
2021/11/14 04:40:24;;;;;;;1.60;1.20;;;9.20;98.20;;;;;;4844889;29;20476;-78
2021/11/14 04:42:51;;;;;;;1.60;1.20;;;9.20;98.20;;;;;;4841668;29;20520;-78
2021/11/14 04:45:18;;;;;;;1.60;1.20;;;9.20;98.20;;;;;;4842805;29;20460;-77
2021/11/14 04:47:45;;;;;;;1.60;1.20;;;9.20;98.20;;;;;;4841272;29;20472;-79
2021/11/14 04:50:14;;;;;;;1.60;1.30;;;9.20;98.20;;;;;;4844799;29;20562;-78
2021/11/14 04:52:41;;;;;;;1.60;1.20;;;9.20;98.20;;;;;;4842519;29;20495;-78
2021/11/14 04:55:10;;;;;;;1.60;1.20;;;9.20;98.20;;;;;;4845264;29;20479;-77
2021/11/14 04:57:37;;;;;;;1.70;1.30;;;9.20;98.20;;;;;;4838196;29;20479;-78
2021/11/14 05:00:07;;;;;;;1.60;1.30;;;9.20;98.20;;;;;;4841861;29;20539;-77
2021/11/14 05:02:34;;;;;;;1.60;1.20;;;9.20;98.20;;;;;;4841699;29;20464;-78
2021/11/14 05:05:01;;;;;;;1.60;1.20;;;9.20;98.20;;;;;;4842452;29;20460;-78
2021/11/14 05:07:28;;;;;;;1.60;1.20;;;9.20;98.20;;;;;;4841895;29;20468;-77
2021/11/14 05:09:55;;;;;;;1.60;1.30;;;9.20;98.20;;;;;;4840111;29;20984;-78
2021/11/14 05:12:23;;;;;;;1.60;1.20;;;9.20;98.20;;;;;;4844232;29;20495;-79
2021/11/14 05:14:50;;;;;;;1.60;1.20;;;9.20;98.20;;;;;;4844799;29;20472;-78
2021/11/14 05:17:17;;;;;;;1.60;1.20;;;9.20;98.20;;;;;;4840538;29;20487;-78
2021/11/14 05:19:44;;;;;;;1.60;1.20;;;9.20;98.20;;;;;;4842258;29;20472;-78
2021/11/14 05:22:10;;;;;;;1.60;1.20;;;9.20;98.20;;;;;;4841435;29;20475;-77
2021/11/14 05:24:37;;;;;;;1.60;1.23;;;9.10;98.20;;;;;;4842593;29;20983;-76
2021/11/14 05:27:05;;;;;;;1.60;1.20;;;9.10;98.20;;;;;;4840711;29;20492;-78
2021/11/14 05:29:33;;;;;;;1.60;1.20;;;9.10;98.20;;;;;;4837931;29;20469;-79
2021/11/14 05:32:00;;;;;;;1.60;1.20;;;9.10;98.20;;;;;;4843466;29;20528;-78
2021/11/14 05:34:27;;;;;;;1.60;1.20;;;9.10;98.20;;;;;;4841210;29;20971;-77
2021/11/14 05:36:53;;;;;;;1.60;1.20;;;9.10;98.20;;;;;;4843209;29;20500;-77
2021/11/14 05:39:20;;;;;;;1.60;1.30;;;9.10;98.20;;;;;;4843391;29;20475;-77
2021/11/14 05:41:47;;;;;;;1.60;1.20;;;9.10;98.20;;;;;;4843739;29;20487;-78
2021/11/14 05:44:14;;;;;;;1.60;1.20;;;9.10;98.20;;;;;;4843784;29;20479;-78
2021/11/14 05:46:42;;;;;;;1.67;1.30;;;9.10;98.20;;;;;;4840310;29;20480;-78
2021/11/14 05:49:09;;;;;;;1.60;1.20;;;9.10;98.20;;;;;;4838909;29;20754;-78
2021/11/14 05:51:36;;;;;;;1.60;1.20;;;9.20;98.20;;;;;;4841455;29;20532;-78
2021/11/14 05:54:04;;;;;;;1.60;1.20;;;9.20;98.20;;;;;;4842223;29;20574;-77
2021/11/14 05:56:31;;;;;;;1.60;1.20;;;9.20;98.20;;;;;;4839682;29;20495;-76
2021/11/14 05:59:05;;;;;;;1.60;1.20;;;9.20;98.20;;;;;;4837400;29;20483;-79
2021/11/14 06:01:36;;;;;;;1.60;1.30;;;9.10;98.20;;;;;;4834399;29;20488;-75
2021/11/14 06:04:09;;;;;;;1.60;1.20;;;9.10;98.20;;;;;;4836784;29;20475;-76
2021/11/14 06:06:35;;;;;;;1.60;1.20;;;9.10;98.20;;;;;;4834083;29;20496;-76
2021/11/14 06:09:03;;;;;;;1.60;1.20;;;9.10;98.20;;;;;;4840759;29;20464;-77
2021/11/14 06:11:30;;;;;;;1.60;1.20;;;9.10;98.20;;;;;;4843284;29;20472;-77
2021/11/14 06:13:57;;;;;;;1.60;1.20;;;9.10;98.20;;;;;;4841376;29;20563;-77
2021/11/14 06:16:26;;;;;;;1.60;1.20;;;9.10;98.20;;;;;;4837737;29;20497;-77
2021/11/14 06:18:55;;;;;;;1.60;1.30;;;9.10;98.20;;;;;;4830873;29;20905;-78
2021/11/14 06:21:24;;;;;;;1.60;1.20;;;9.10;98.20;;;;;;4828190;29;20551;-76
2021/11/14 06:23:51;;;;;;;1.60;1.20;;;9.10;98.20;;;;;;4826244;29;20698;-76
2021/11/14 06:26:18;;;;;;;1.60;1.20;;;9.10;98.20;;;;;;4827599;29;20511;-76
2021/11/14 06:28:46;;;;;;;1.60;1.20;;;9.10;98.20;;;;;;4833256;29;20852;-77
2021/11/14 06:31:13;;;;;;;1.60;1.20;;;9.10;98.20;;;;;;4832724;29;20879;-76
2021/11/14 06:33:40;;;;;;;1.60;1.23;;;9.10;98.20;;;;;;4831806;29;20592;-77
2021/11/14 06:36:07;;;;;;;1.60;1.20;;;9.10;98.20;;;;;;4831272;29;20595;-77
2021/11/14 06:38:36;;;;;;;1.60;1.30;;;9.10;98.20;;;;;;4828666;29;20902;-77
2021/11/14 06:41:03;;;;;;;1.60;1.20;;;9.10;98.20;;;;;;4824286;29;20568;-78
2021/11/14 06:43:34;;;;;;;1.60;1.30;;;9.10;98.20;;;;;;4826727;29;20477;-76
2021/11/14 06:46:04;;;;;;;1.60;1.20;;;9.10;98.20;;;;;;4827987;29;20488;-76
2021/11/14 06:48:34;;;;;;;1.60;1.20;;;9.10;98.20;;;;;;4828877;29;20485;-77
2021/11/14 06:51:05;;;;;;;1.60;1.10;;;9.10;98.20;;;;;;4833108;29;20468;-76
2021/11/14 06:53:35;;;;;;;1.60;1.20;;;9.10;98.20;;;;;;4841003;29;20940;-78
2021/11/14 06:56:05;;;;;;;1.60;1.20;;;9.10;98.20;;;;;;4838510;29;20516;-76
2021/11/14 06:58:35;;;;;;;1.60;1.20;;;9.10;98.20;;;;;;4832050;29;21314;-77
2021/11/14 07:01:04;;;;;;;1.63;1.27;;;9.10;98.20;;;;;;4840011;29;20528;-78
2021/11/14 07:03:32;;;;;;;1.60;1.20;;;9.10;98.20;;;;;;4834393;29;20542;-76
2021/11/14 07:06:00;;;;;;;1.60;1.20;;;9.00;98.20;;;;;;4840197;29;21108;-76
2021/11/14 07:08:27;;;;;;;1.60;1.20;;;9.10;98.20;;;;;;4838040;29;20503;-77
2021/11/14 07:10:54;;;;;;;1.60;1.20;;;9.10;98.20;;;;;;4836138;29;20472;-77
2021/11/14 07:13:23;;;;;;;1.60;1.20;;;9.10;98.20;;;;;;4840180;29;20503;-76
2021/11/14 07:15:50;;;;;;;1.60;1.20;;;9.00;98.20;;;;;;4837645;29;20496;-77
2021/11/14 07:18:20;;;;;;;1.60;1.20;;;9.00;98.20;;;;;;4838545;29;20476;-76
2021/11/14 07:20:48;;;;;;;1.60;1.20;;;9.00;98.20;;;;;;4840846;29;20472;-77
2021/11/14 07:23:15;;;;;;;1.60;1.20;;;9.00;98.20;;;;;;4839402;29;20472;-77
2021/11/14 07:25:44;;;;;;;1.60;1.30;;;8.90;98.20;;;;;;4833845;29;20892;-77
2021/11/14 07:28:11;;;;;;;1.60;1.20;;;8.90;98.20;;;;;;4828490;29;21035;-77
2021/11/14 07:30:41;;;;;;;1.60;1.20;;;8.90;98.20;;;;;;4837328;29;20487;-77
2021/11/14 07:33:08;;;;;;;1.60;1.13;;;8.80;98.20;;;;;;4839441;29;20515;-76
2021/11/14 07:35:36;;;;;;;1.60;1.30;;;8.80;98.20;;;;;;4831439;29;20504;-76
2021/11/14 07:38:04;;;;;;;1.60;1.20;;;8.80;98.20;;;;;;4837703;29;20480;-78
2021/11/14 07:40:32;;;;;;;2.03;1.40;;;8.80;98.20;;;;;;4838329;29;20487;-77
2021/11/14 07:43:00;;;;;;;1.70;1.20;;;8.80;98.20;;;;;;4838838;29;20528;-77
2021/11/14 07:45:29;;;;;;;1.60;1.20;;;8.80;98.20;;;;;;4837918;29;21253;-77
2021/11/14 07:47:58;;;;;;;1.60;1.20;;;8.80;98.20;;;;;;4831708;29;20468;-77
2021/11/14 07:50:28;;;;;;;1.70;1.40;;;8.80;98.20;;;;;;4835026;29;20468;-76
2021/11/14 07:52:56;;;;;;;1.60;1.30;;;8.80;98.20;;;;;;4838380;29;20469;-77
2021/11/14 07:55:23;;;;;;;2.57;2.13;;;8.80;98.20;;;;;;4835583;29;20488;-76
2021/11/14 07:57:52;;;;;;;1.67;1.30;;;8.80;98.20;;;;;;4826545;29;20475;-78
2021/11/14 08:00:22;;;;;;;1.60;1.20;;;8.80;98.20;;;;;;4839858;29;20536;-78
2021/11/14 08:02:50;;;;;;;1.60;1.20;;;8.80;98.20;;;;;;4842322;29;20472;-75
2021/11/14 08:05:21;;;;;;;1.60;1.20;;;8.90;98.20;;;;;;4841050;29;20476;-77
2021/11/14 08:07:51;;;;;;;1.60;1.20;;;8.90;98.20;;;;;;4841547;29;20480;-76
2021/11/14 08:10:20;;;;;;;1.60;1.20;;;8.90;98.20;;;;;;4841381;29;20560;-78
2021/11/14 08:12:48;;;;;;;1.60;1.17;;;8.90;98.20;;;;;;4841324;29;20532;-77
2021/11/14 08:15:16;;;;;;;1.60;1.20;;;9.00;98.20;;;;;;4839741;29;20478;-78
2021/11/14 08:17:43;;;;;;;1.60;1.20;;;9.00;98.20;;;;;;4833095;29;20464;-78
2021/11/14 08:20:12;;;;;;;1.60;1.27;;;9.00;98.20;;;;;;4841446;29;20478;-78
2021/11/14 08:22:40;;;;;;;2.33;2.07;;;9.00;98.20;;;;;;4841406;29;20487;-77
2021/11/14 08:25:08;;;;;;;1.60;1.20;;;9.00;98.20;;;;;;4839538;29;20907;-78
2021/11/14 08:27:36;;;;;;;1.60;1.20;;;9.00;98.20;;;;;;4833852;29;20476;-76
2021/11/14 08:30:06;;;;;;;1.60;1.20;;;9.00;98.20;;;;;;4839242;29;20472;-78
2021/11/14 08:32:33;;;;;;;1.60;1.10;;;9.00;98.20;;;;;;4841414;29;20475;-76
2021/11/14 08:35:01;;;;;;;1.60;1.20;;;9.00;98.20;;;;;;4838038;29;20884;-76
2021/11/14 08:37:28;;;;;;;1.60;1.27;;;9.10;98.20;;;;;;4839717;29;20487;-77
2021/11/14 08:39:56;;;;;;;1.60;1.20;;;9.10;98.20;;;;;;4840821;29;20468;-78
2021/11/14 08:42:23;;;;;;;1.60;1.20;;;9.10;98.20;;;;;;4840727;29;20550;-79
2021/11/14 08:44:50;;;;;;;1.60;1.20;;;9.10;98.20;;;;;;4839174;29;20995;-77
2021/11/14 08:47:17;;;;;;;1.60;1.20;;;9.10;98.20;;;;;;4830456;29;20494;-77
2021/11/14 08:49:45;;;;;;;1.60;1.20;;;9.20;98.20;;;;;;4830864;29;21036;-78
2021/11/14 08:52:12;;;;;;;1.60;1.10;;;9.20;98.20;;;;;;4832606;29;20588;-77
2021/11/14 08:54:39;;;;;;;1.60;1.20;;;9.20;98.20;;;;;;4838364;29;20495;-77
2021/11/14 08:57:09;;;;;;;1.60;1.10;;;9.30;98.20;;;;;;4839502;29;20492;-77
2021/11/14 08:59:36;;;;;;;1.60;1.20;;;9.30;98.20;;;;;;4838659;29;20472;-78
2021/11/14 09:02:04;;;;;;;1.60;1.20;;;9.40;98.20;;;;;;4839512;29;20564;-78
2021/11/14 09:04:31;;;;;;;1.70;1.53;;;9.40;98.20;;;;;;4827060;29;20594;-76
2021/11/14 09:06:59;;;;;;;1.60;1.10;;;9.40;98.20;;;;;;4823281;29;20566;-77
2021/11/14 09:09:27;;;;;;;1.60;1.20;;;9.40;98.20;;;;;;4827336;29;20488;-78
2021/11/14 09:11:55;;;;;;;1.60;1.10;;;9.50;98.20;;;;;;4823044;29;20968;-77
2021/11/14 09:14:24;;;;;;;1.60;1.20;;;9.50;98.20;;;;;;4826181;29;20499;-79
2021/11/14 09:16:53;;;;;;;1.60;1.20;;;9.50;98.20;;;;;;4823374;29;20910;-77
2021/11/14 09:19:22;;;;;;;1.67;1.30;;;9.60;98.20;;;;;;4845082;23;20502;-76
2021/11/14 09:22:18;;;;;;;1.60;1.10;;;9.60;98.20;;;;;;4867557;29;20474;-76
2021/11/14 09:25:31;;;;;;;;;;;;;;;;;;;;;
2021/11/14 09:30:51;;;;;;;1.60;1.10;;;9.80;98.20;;;;;;4871294;23;20439;-74
2021/11/14 09:33:19;;;;;;;1.60;1.20;;;9.90;98.20;;;;;;4884247;29;20482;-74
2021/11/14 09:35:46;;;;;;;1.60;1.20;;;9.90;98.20;;;;;;4871571;29;20509;-74
2021/11/14 09:38:14;;;;;;;1.60;1.20;;;9.90;98.20;;;;;;4861506;29;20473;-75
2021/11/14 09:40:42;;;;;;;1.60;1.20;;;10.00;98.20;;;;;;4864454;29;20474;-76
2021/11/14 09:43:10;;;;;;;1.60;1.30;;;10.00;98.20;;;;;;4864751;29;21513;-75
2021/11/14 09:45:38;;;;;;;1.60;1.20;;;10.00;98.20;;;;;;4862867;29;20508;-74
2021/11/14 09:48:08;;;;;;;1.60;1.20;;;10.10;98.20;;;;;;4859760;29;20510;-74
2021/11/14 09:50:36;;;;;;;1.60;1.10;;;10.10;98.20;;;;;;4863203;29;20605;-74
2021/11/14 09:53:03;;;;;;;1.67;1.30;;;10.20;98.20;;;;;;4864624;29;20478;-75
2021/11/14 09:55:35;;;;;;;1.60;1.10;;;10.20;98.20;;;;;;4861771;29;20927;-74
2021/11/14 09:58:03;;;;;;;1.60;1.10;;;10.30;98.20;;;;;;4864500;29;20478;-75
2021/11/14 10:00:30;;;;;;;1.60;1.20;;;10.30;98.20;;;;;;4863912;29;20474;-74
2021/11/14 10:02:57;;;;;;;1.60;1.20;;;10.30;98.20;;;;;;4864298;29;20497;-75
2021/11/14 10:05:26;;;;;;;1.60;1.10;;;10.30;98.20;;;;;;4862521;29;20495;-74
2021/11/14 10:07:55;;;;;;;1.60;1.20;;;10.30;98.20;;;;;;4864143;29;20485;-74
2021/11/14 10:10:25;;;;;;;1.60;1.20;;;10.40;98.20;;;;;;4863465;29;20577;-75
2021/11/14 10:12:54;;;;;;;1.60;1.20;;;10.40;98.20;;;;;;4863160;29;20490;-75
2021/11/14 10:15:24;;;;;;;1.60;1.20;;;10.40;98.20;;;;;;4861422;29;20501;-74
2021/11/14 10:17:55;;;;;;;1.63;1.20;;;10.40;98.20;;;;;;4862294;29;21012;-74
2021/11/14 10:20:24;;;;;;;1.60;1.20;;;10.50;98.20;;;;;;4862046;29;20474;-74
2021/11/14 10:22:55;;;;;;;1.60;1.20;;;10.50;98.20;;;;;;4862676;29;20491;-75
2021/11/14 10:25:23;;;;;;;1.60;1.17;;;10.50;98.20;;;;;;4861329;29;20481;-74
2021/11/14 10:27:53;;;;;;;1.70;1.20;;;10.50;98.20;;;;;;4863980;29;20565;-75
2021/11/14 10:30:36;;;;;;;1.60;1.20;;;10.50;98.20;;;;;;4858982;29;20486;-74
2021/11/14 10:33:08;;;;;;;1.63;1.20;;;10.40;98.20;;;;;;4861783;29;20573;-74
2021/11/14 10:35:39;;;;;;;1.60;1.10;;;10.40;98.20;;;;;;4861976;29;20505;-73
2021/11/14 10:38:10;;;;;;;2.80;2.60;;;10.40;98.20;;;;;;4859698;29;20973;-74
2021/11/14 10:40:43;;;;;;;1.60;1.10;;;10.50;98.20;;;;;;4864551;29;20897;-74
2021/11/14 10:43:11;;;;;;;1.60;1.20;;;10.50;98.20;;;;;;4868701;29;20479;-73
2021/11/14 10:45:41;;;;;;;1.60;1.20;;;10.50;98.20;;;;;;4862391;29;20545;-71
2021/11/14 10:48:12;;;;;;;1.67;1.20;;;10.50;98.20;;;;;;4864835;29;20470;-74
2021/11/14 10:50:42;;;;;;;1.60;1.20;;;10.60;98.20;;;;;;4865529;29;20601;-73
2021/11/14 10:53:13;;;;;;;1.60;1.20;;;10.60;98.20;;;;;;4865509;29;20485;-72
2021/11/14 10:55:42;;;;;;;1.60;1.10;;;10.60;98.20;;;;;;4863745;29;20509;-73
2021/11/14 10:58:10;;;;;;;1.60;1.20;;;10.60;98.20;;;;;;4863153;29;20467;-73
2021/11/14 11:00:40;;;;;;;1.60;1.10;;;10.60;98.20;;;;;;4863397;29;20557;-73
2021/11/14 11:03:09;;;;;;;1.60;1.10;;;10.60;98.20;;;;;;4864896;29;20982;-74
2021/11/14 11:05:39;;;;;;;1.60;1.20;;;10.60;98.20;;;;;;4858221;29;20585;-75
2021/11/14 11:08:09;;;;;;;1.60;1.07;;;10.60;98.20;;;;;;4863379;29;20482;-76
2021/11/14 11:10:45;;;;;;;1.70;1.40;;;10.70;98.20;;;;;;4863065;29;20815;-73
2021/11/14 11:13:14;;;;;;;1.60;1.17;;;10.70;98.20;;;;;;4862582;29;20667;-74
2021/11/14 11:15:43;;;;;;;1.60;1.10;;;10.70;98.20;;;;;;4861551;29;20498;-74
2021/11/14 11:18:13;;;;;;;1.60;1.10;;;10.70;98.20;;;;;;4862003;29;20505;-74
2021/11/14 11:20:40;;;;;;;1.60;1.10;;;10.70;98.20;;;;;;4863063;29;20474;-74
2021/11/14 11:23:10;;;;;;;1.60;1.20;;;10.70;98.20;;;;;;4862493;29;20474;-74
2021/11/14 11:25:40;;;;;;;1.60;1.10;;;10.70;98.20;;;;;;4861033;29;20589;-77
2021/11/14 11:28:15;;;;;;;1.60;1.10;;;10.70;98.20;;;;;;4860983;29;20849;-75
2021/11/14 11:30:44;;;;;;;1.70;1.40;;;10.70;98.20;;;;;;4860221;29;20564;-74
2021/11/14 11:33:11;;;;;;;1.60;1.10;;;10.70;98.20;;;;;;4861315;29;21274;-73
2021/11/14 11:35:38;;;;;;;1.60;1.10;;;10.70;98.20;;;;;;4863207;29;20867;-74
2021/11/14 11:38:07;;;;;;;1.60;1.20;;;10.70;98.20;;;;;;4861027;29;20809;-74
2021/11/14 11:40:38;;;;;;;1.60;1.20;;;10.80;98.20;;;;;;4862849;29;20974;-73
2021/11/14 11:43:05;;;;;;;1.60;1.10;;;10.80;98.20;;;;;;4864509;29;20469;-73
2021/11/14 11:45:37;;;;;;;1.60;1.20;;;10.90;98.20;;;;;;4862850;29;21167;-73
2021/11/14 11:48:12;;;;;;;1.60;1.10;;;10.90;98.20;;;;;;4865143;29;20847;-75
2021/11/14 11:50:39;;;;;;;1.60;1.10;;;10.90;98.20;;;;;;4864615;29;20683;-72
2021/11/14 11:53:07;;;;;;;1.60;1.10;;;10.90;98.20;;;;;;4861506;29;20477;-72
2021/11/14 11:55:39;;;;;;;1.60;1.10;;;10.90;98.20;;;;;;4863236;29;20505;-72
2021/11/14 11:58:12;;;;;;;1.60;1.10;;;10.90;98.20;;;;;;4860461;29;20869;-73
2021/11/14 12:00:58;;;;;;;1.60;1.10;;;11.00;98.20;;;;;;4861145;29;20557;-72
2021/11/14 12:03:31;;;;;;;1.60;1.07;;;11.00;98.20;;;;;;4863732;29;20845;-71
2021/11/14 12:06:00;;;;;;;1.60;1.10;;;11.10;98.20;;;;;;4862234;29;20565;-75
2021/11/14 12:08:42;;;;;;;1.60;1.10;;;11.10;98.20;;;;;;4861145;29;20482;-74
2021/11/14 12:11:10;;;;;;;1.60;1.10;;;11.10;98.20;;;;;;4859794;29;20518;-75
2021/11/14 12:13:41;;;;;;;1.60;1.10;;;11.20;98.20;;;;;;4861132;29;20482;-74
2021/11/14 12:16:10;;;;;;;1.60;1.10;;;11.40;98.20;;;;;;4862000;29;20505;-73
2021/11/14 12:18:40;;;;;;;1.60;1.10;;;11.50;98.20;;;;;;4860903;29;20486;-74
2021/11/14 12:21:17;;;;;;;1.60;1.00;;;11.60;98.20;;;;;;4861757;29;20481;-73
2021/11/14 12:23:53;;;;;;;1.60;1.10;;;11.70;98.20;;;;;;4861653;29;20478;-74
2021/11/14 12:26:27;;;;;;;1.60;1.10;;;11.80;98.20;;;;;;4862422;29;20502;-73
2021/11/14 12:29:00;;;;;;;1.60;1.00;;;11.90;98.20;;;;;;4864270;29;20537;-77
2021/11/14 12:31:31;;;;;;;1.60;1.10;;;11.80;98.20;;;;;;4863633;29;20474;-75
2021/11/14 12:34:07;;;;;;;1.60;1.00;;;11.80;98.20;;;;;;4861967;29;21008;-76
2021/11/14 12:36:38;;;;;;;1.60;1.00;;;11.70;98.20;;;;;;4855313;29;20774;-75
2021/11/14 12:39:12;;;;;;;1.60;1.10;;;11.70;98.20;;;;;;4860784;29;20474;-75
2021/11/14 12:41:41;;;;;;;1.60;1.00;;;11.60;98.20;;;;;;4860704;29;20581;-74
2021/11/14 12:44:09;;;;;;;1.60;1.10;;;11.60;98.20;;;;;;4862834;29;20481;-76
2021/11/14 12:46:38;;;;;;;1.60;1.10;;;11.50;98.20;;;;;;4864237;29;20589;-75
2021/11/14 12:49:15;;;;;;;1.60;1.10;;;11.40;98.20;;;;;;4864130;29;20573;-75
2021/11/14 12:51:52;;;;;;;1.60;1.10;;;11.40;98.20;;;;;;4864638;29;20498;-74
2021/11/14 12:54:25;;;;;;;1.60;1.20;;;11.30;98.20;;;;;;4864623;29;20473;-75
2021/11/14 12:56:53;;;;;;;1.60;1.10;;;11.20;98.20;;;;;;4862021;29;20562;-76
2021/11/14 12:59:24;;;;;;;1.60;1.00;;;11.20;98.20;;;;;;4862049;29;20505;-75
2021/11/14 13:01:56;;;;;;;1.60;1.10;;;11.20;98.20;;;;;;4864900;29;21116;-75
2021/11/14 13:04:27;;;;;;;1.60;1.10;;;11.20;98.20;;;;;;4861309;29;20478;-74
2021/11/14 13:06:56;;;;;;;1.60;1.17;;;11.30;98.20;;;;;;4861440;29;20919;-74